Time;durP1;ratioP1;P1;durP2;ratioP2;P2;SDS_P1;SDS_P2;PMS_P1;PMS_P2;Temp;Humidity;BMP_temperature;BMP_pressure;BME280_temperature;BME280_humidity;BME280_pressure;Samples;Min_cycle;Max_cycle;Signal;HPM_P1;HPM_P2
2021/04/01 14:59:16;;;;;;;5.10;2.60;;;22.50;76.10;;;23.55;36.47;94921.00;2430064;57;26178;-58
2021/04/01 15:02:05;;;;;;;6.57;2.55;;;22.40;76.90;;;23.26;37.23;94926.00;2211411;57;26667;-58
2021/04/01 15:04:54;;;;;;;5.45;2.47;;;22.10;77.40;;;22.80;38.47;94925.00;2430578;57;26214;-58
2021/04/01 15:07:41;;;;;;;6.50;2.47;;;21.90;77.80;;;22.77;37.91;94919.00;2212228;57;27047;-58
2021/04/01 15:10:28;;;;;;;5.97;3.40;;;21.90;77.90;;;22.60;38.89;94919.00;2430122;57;26169;-57
2021/04/01 15:13:14;;;;;;;4.60;2.62;;;21.70;78.20;;;22.27;39.18;94912.00;2211832;57;26177;-58
2021/04/01 15:16:00;;;;;;;4.07;2.22;;;21.80;79.20;;;22.71;39.33;94919.00;2457531;56;26707;-58
2021/04/01 15:18:47;;;;;;;6.10;3.15;;;21.80;80.90;;;22.62;41.55;94912.00;2236188;57;26744;-58
2021/04/01 15:21:35;;;;;;;8.00;2.60;;;21.90;80.20;;;22.84;40.59;94909.00;2459886;56;26608;-58
2021/04/01 15:24:21;;;;;;;6.20;2.80;;;22.10;78.30;;;22.99;38.93;94912.00;2211073;57;26613;-57
2021/04/01 15:27:08;;;;;;;7.35;2.90;;;22.10;77.90;;;22.99;38.51;94912.00;2210675;57;26597;-58
2021/04/01 15:29:59;;;;;;;5.97;2.95;;;21.80;80.30;;;22.61;41.06;94908.00;2429078;57;26117;-58
2021/04/01 15:32:45;;;;;;;5.00;2.58;;;21.60;79.10;;;22.43;39.79;94900.00;2210547;57;26407;-58
2021/04/01 15:35:32;;;;;;;4.85;2.72;;;21.60;79.70;;;22.43;40.71;94907.00;2210466;57;26222;-58
2021/04/01 15:38:19;;;;;;;6.85;2.58;;;21.60;79.30;;;22.31;40.48;94899.00;2210828;57;26237;-58
2021/04/01 15:41:06;;;;;;;4.90;2.87;;;21.50;78.30;;;22.23;39.62;94892.00;2210665;57;26246;-57
2021/04/01 15:43:54;;;;;;;5.95;2.87;;;21.50;79.00;;;22.18;40.25;94895.00;2429793;57;26212;-58
2021/04/01 15:46:40;;;;;;;3.80;2.50;;;21.40;79.70;;;22.12;40.83;94890.00;2429782;57;26599;-57
2021/04/01 15:49:27;;;;;;;6.45;2.97;;;21.10;80.90;;;21.68;42.61;94901.00;2211981;57;26107;-58
2021/04/01 15:52:14;;;;;;;12.45;2.83;;;21.00;79.40;;;21.64;41.13;94883.00;2430047;57;26253;-59
2021/04/01 15:55:00;;;;;;;10.27;3.20;;;20.90;79.40;;;21.46;41.18;94878.00;2167628;56;26144;-58
2021/04/01 15:57:46;;;;;;;3.33;2.20;;;21.00;78.20;;;21.48;40.02;94863.00;2391954;56;26155;-58
2021/04/01 16:00:33;;;;;;;6.45;2.58;;;21.00;79.00;;;21.55;40.75;94879.00;2186039;58;26207;-58
2021/04/01 16:03:19;;;;;;;8.38;2.53;;;20.70;80.90;;;21.20;43.00;94882.00;2184264;58;26218;-58
2021/04/01 16:06:07;;;;;;;6.20;2.67;;;20.60;81.10;;;21.25;42.86;94882.00;2398997;57;26115;-58
2021/04/01 16:08:53;;;;;;;8.63;2.85;;;20.60;80.70;;;21.12;42.69;94879.00;2186706;58;26220;-58
2021/04/01 16:11:39;;;;;;;6.68;2.62;;;20.40;81.70;;;20.91;44.15;94883.00;2399623;57;26151;-58
2021/04/01 16:14:26;;;;;;;4.40;2.67;;;20.40;81.30;;;20.93;43.85;94881.00;2186139;58;26676;-57
2021/04/01 16:17:13;;;;;;;6.57;2.70;;;20.20;82.50;;;20.69;45.36;94881.00;2398835;57;26323;-58
2021/04/01 16:19:59;;;;;;;5.90;2.75;;;20.10;82.40;;;20.57;45.52;94887.00;2187248;58;26187;-58
2021/04/01 16:22:46;;;;;;;6.03;2.85;;;19.90;83.20;;;20.33;46.95;94881.00;2400093;58;26690;-58
2021/04/01 16:25:32;;;;;;;8.27;2.83;;;20.00;82.30;;;20.38;45.76;94878.00;2187648;57;26102;-58
2021/04/01 16:28:19;;;;;;;8.57;2.80;;;19.80;82.80;;;20.16;46.89;94869.00;2187419;57;26163;-59
2021/04/01 16:31:06;;;;;;;10.00;2.90;;;19.70;83.10;;;20.04;47.33;94871.00;2399851;57;26560;-58
2021/04/01 16:33:54;;;;;;;7.37;3.12;;;19.90;82.10;;;20.27;45.78;94871.00;2187079;57;26662;-58
2021/04/01 16:36:42;;;;;;;6.40;2.80;;;19.70;83.00;;;19.95;47.55;94871.00;2400511;57;26154;-59
2021/04/01 16:39:31;;;;;;;6.75;2.97;;;19.60;83.10;;;19.86;47.80;94877.00;2187509;57;26126;-58
2021/04/01 16:42:17;;;;;;;3.75;3.17;;;19.40;83.80;;;19.68;49.12;94875.00;2400251;57;26170;-59
2021/04/01 16:45:07;;;;;;;6.57;3.22;;;19.20;85.10;;;19.43;51.64;94881.00;2186917;57;26603;-58
2021/04/01 16:47:54;;;;;;;8.45;3.20;;;19.20;84.80;;;19.58;50.71;94881.00;2400256;57;26099;-58
2021/04/01 16:50:41;;;;;;;5.95;3.37;;;19.10;85.00;;;19.45;51.45;94883.00;2187790;57;26611;-58
2021/04/01 16:53:39;;;;;;;6.72;3.65;;;19.00;86.10;;;19.24;54.02;94887.00;2400696;57;26202;-59
2021/04/01 16:56:31;;;;;;;9.82;3.12;;;18.80;87.50;;;19.02;57.51;94894.00;2394321;57;26237;-59
2021/04/01 16:59:19;;;;;;;7.22;3.30;;;18.70;88.30;;;18.92;60.37;94903.00;2186904;57;26193;-58
2021/04/01 17:02:07;;;;;;;9.10;3.50;;;18.40;92.20;;;18.71;87.29;94902.00;2399674;57;26254;-58
2021/04/01 17:04:54;;;;;;;7.55;3.25;;;18.00;96.00;;;18.27;100.00;94907.00;2185280;57;26206;-58
2021/04/01 17:07:40;;;;;;;7.70;2.70;;;17.50;98.70;;;17.79;100.00;94909.00;2400645;57;26133;-60
2021/04/01 17:10:27;;;;;;;6.20;2.45;;;17.20;99.70;;;17.49;100.00;94914.00;2187700;57;26193;-58
2021/04/01 17:13:13;;;;;;;4.70;2.67;;;16.90;99.80;;;17.23;100.00;94922.00;2400351;57;26094;-58
2021/04/01 17:15:59;;;;;;;5.20;2.83;;;16.80;99.90;;;17.10;100.00;94939.00;2190480;57;26116;-58
2021/04/01 17:18:46;;;;;;;6.30;2.75;;;16.70;99.30;;;16.99;100.00;94950.00;2182350;58;26228;-58
2021/04/01 17:21:32;;;;;;;5.82;2.78;;;16.70;98.60;;;16.94;100.00;94961.00;2397335;57;26146;-59
2021/04/01 17:24:18;;;;;;;7.50;2.80;;;16.60;98.90;;;16.84;100.00;94966.00;2185734;58;26156;-57
2021/04/01 17:27:07;;;;;;;7.57;3.22;;;16.60;98.50;;;16.84;100.00;94981.00;2398354;57;26567;-59
2021/04/01 17:29:53;;;;;;;8.15;2.83;;;16.60;98.80;;;16.90;100.00;94997.00;2185913;56;26170;-59
2021/04/01 17:32:40;;;;;;;6.93;2.85;;;16.50;98.40;;;16.80;100.00;95000.00;2400264;56;26221;-58
2021/04/01 17:35:27;;;;;;;9.20;3.17;;;16.50;98.70;;;16.80;100.00;94999.00;2187421;56;26657;-57
2021/04/01 17:38:13;;;;;;;9.82;3.50;;;16.40;98.60;;;16.75;100.00;95017.00;2400135;56;27170;-57
2021/04/01 17:41:00;;;;;;;10.73;3.83;;;16.30;99.90;;;16.56;100.00;95023.00;2186816;57;26625;-58
2021/04/01 17:43:46;;;;;;;13.00;4.00;;;16.00;99.90;;;16.31;100.00;95028.00;2186964;57;26187;-58
2021/04/01 17:46:33;;;;;;;8.57;3.55;;;15.60;99.90;;;15.88;100.00;95031.00;2399730;57;26608;-57
2021/04/01 17:49:19;;;;;;;10.90;3.58;;;15.20;99.90;;;15.48;100.00;95040.00;2186776;57;26178;-58
2021/04/01 17:52:08;;;;;;;9.48;3.70;;;15.10;99.90;;;15.40;100.00;95059.00;2399721;57;26716;-59
2021/04/01 17:54:54;;;;;;;6.82;3.60;;;14.60;99.90;;;14.89;100.00;95067.00;2186758;57;26167;-58
2021/04/01 17:57:44;;;;;;;8.98;4.03;;;14.40;99.90;;;14.71;100.00;95063.00;2399041;57;26162;-58
2021/04/01 18:00:33;;;;;;;8.82;3.83;;;14.30;99.90;;;14.57;100.00;95078.00;2185185;57;26768;-58
2021/04/01 18:03:37;;;;;;;7.28;4.00;;;14.00;99.90;;;14.26;100.00;95068.00;2184902;57;26590;-59
2021/04/01 18:25:12;;;;;;;11.83;7.37;;;13.30;99.90;;;13.58;100.00;95143.00;2203191;56;26128;-58
2021/04/01 18:28:03;;;;;;;12.80;6.27;;;13.20;99.90;;;13.53;100.00;95140.00;2215092;56;26192;-57
2021/04/01 18:30:50;;;;;;;9.87;6.47;;;13.00;99.90;;;13.32;100.00;95156.00;2214925;56;26148;-58
2021/04/01 18:33:40;;;;;;;10.30;5.10;;;12.90;99.90;;;13.20;100.00;95150.00;2214860;56;26590;-58
2021/04/01 18:36:34;;;;;;;7.87;4.80;;;12.80;99.90;;;13.12;100.00;95155.00;2215282;56;26715;-57
2021/04/01 18:39:24;;;;;;;9.53;4.03;;;12.80;99.90;;;13.15;100.00;95163.00;2433957;56;26669;-57
2021/04/01 18:42:12;;;;;;;10.37;4.30;;;12.70;99.90;;;13.00;100.00;95162.00;2215393;56;26617;-58
2021/04/01 18:45:01;;;;;;;6.53;3.50;;;12.60;99.90;;;12.99;100.00;95158.00;2433500;56;26597;-58
2021/04/01 18:47:50;;;;;;;10.37;4.27;;;12.60;99.90;;;13.00;100.00;95165.00;2215308;56;26126;-59
2021/04/01 18:50:39;;;;;;;7.47;4.00;;;12.40;99.90;;;12.71;100.00;95176.00;2434353;56;26561;-57
2021/04/01 18:53:29;;;;;;;4.97;3.70;;;12.30;99.90;;;12.73;100.00;95179.00;2215254;56;26122;-58
2021/04/01 18:56:18;;;;;;;5.13;3.10;;;12.30;99.90;;;12.68;100.00;95174.00;2433787;56;26996;-57
2021/04/01 18:59:05;;;;;;;5.30;3.47;;;12.30;99.90;;;12.71;100.00;95179.00;2215276;56;26098;-56
2021/04/01 19:02:13;;;;;;;4.57;2.80;;;12.30;99.90;;;12.61;100.00;95164.00;2214613;56;26123;-57
2021/04/01 19:05:04;;;;;;;16.53;9.30;;;12.20;99.90;;;12.55;100.00;95163.00;2433241;56;26651;-57
2021/04/01 19:07:54;;;;;;;5.43;2.87;;;12.20;99.90;;;12.57;100.00;95139.00;2215435;56;26589;-58
2021/04/01 19:10:56;;;;;;;5.20;2.60;;;12.20;99.90;;;12.55;100.00;95136.00;2434188;56;26592;-58
2021/04/01 19:20:54;;;;;;;6.10;3.80;;;12.20;99.90;;;12.43;100.00;95133.00;2214857;56;26198;-59
2021/04/01 19:23:42;;;;;;;7.70;2.73;;;12.20;99.90;;;12.45;100.00;95138.00;2215016;56;26155;-59
2021/04/01 19:26:29;;;;;;;4.43;2.50;;;12.10;99.90;;;12.28;100.00;95137.00;2433935;56;26546;-58
2021/04/01 19:29:16;;;;;;;6.80;2.90;;;11.90;99.90;;;12.15;100.00;95119.00;2215131;56;26642;-59
2021/04/01 19:32:03;;;;;;;7.47;3.10;;;12.00;99.90;;;12.23;100.00;95132.00;2433766;56;26111;-59
2021/04/01 19:34:50;;;;;;;6.63;3.67;;;11.90;99.90;;;12.18;100.00;95122.00;2215216;56;26143;-60
2021/04/01 19:37:37;;;;;;;9.33;3.90;;;11.90;99.90;;;12.18;100.00;95118.00;2434488;56;26650;-58
2021/04/01 19:40:24;;;;;;;10.50;4.80;;;11.80;99.90;;;12.07;100.00;95119.00;2215595;56;26192;-59
2021/04/01 19:43:13;;;;;;;9.37;3.30;;;11.80;99.90;;;12.09;100.00;95125.00;2433922;56;26160;-59
2021/04/01 19:46:01;;;;;;;10.20;3.83;;;11.80;99.90;;;12.04;100.00;95120.00;2215071;56;26621;-59
2021/04/01 19:48:48;;;;;;;9.30;3.33;;;11.70;99.90;;;11.97;100.00;95118.00;2433805;56;26250;-59
2021/04/01 19:51:36;;;;;;;12.17;3.37;;;11.70;99.90;;;11.91;100.00;95122.00;2215454;56;26223;-59
2021/04/01 19:54:24;;;;;;;5.43;2.87;;;11.60;99.90;;;11.88;100.00;95122.00;2434110;56;26167;-58
2021/04/01 19:57:10;;;;;;;6.63;2.90;;;11.50;99.90;;;11.75;100.00;95120.00;2215628;56;26104;-59
2021/04/01 19:59:58;;;;;;;6.93;3.37;;;11.40;99.90;;;11.65;100.00;95125.00;2433717;56;26152;-60
2021/04/01 20:02:44;;;;;;;6.40;3.20;;;11.40;99.90;;;11.59;100.00;95110.00;2215240;56;26276;-60
2021/04/01 20:05:31;;;;;;;7.17;3.37;;;11.30;99.90;;;11.47;100.00;95114.00;2434188;56;26244;-59
2021/04/01 20:08:17;;;;;;;7.17;3.43;;;11.20;99.90;;;11.43;100.00;95108.00;2215327;56;26135;-59
2021/04/01 20:11:05;;;;;;;7.60;3.30;;;11.20;99.90;;;11.40;100.00;95107.00;2434150;56;26275;-59
2021/04/01 20:13:52;;;;;;;7.43;3.20;;;11.10;99.90;;;11.41;100.00;95106.00;2215547;56;26609;-58
2021/04/01 20:16:39;;;;;;;7.83;3.90;;;11.10;99.90;;;11.30;100.00;95113.00;2215128;56;26127;-59
2021/04/01 20:19:30;;;;;;;5.33;3.30;;;11.10;99.90;;;11.29;100.00;95113.00;2433926;56;26155;-58
2021/04/01 20:22:16;;;;;;;7.47;3.90;;;11.10;99.90;;;11.33;100.00;95110.00;2215259;56;26140;-59
2021/04/01 20:25:06;;;;;;;6.57;3.57;;;11.00;99.90;;;11.13;100.00;95112.00;2433900;56;26729;-57
2021/04/01 20:27:52;;;;;;;9.90;3.47;;;11.00;99.90;;;11.17;100.00;95108.00;2215388;56;26104;-59
2021/04/01 20:30:39;;;;;;;10.10;3.50;;;11.00;99.90;;;11.23;100.00;95105.00;2434053;56;26188;-59
2021/04/01 20:33:26;;;;;;;6.43;2.80;;;11.00;99.90;;;11.27;100.00;95113.00;2214900;56;26625;-59
2021/04/01 20:36:13;;;;;;;7.53;3.00;;;10.90;99.90;;;11.19;100.00;95109.00;2434122;56;26168;-60
2021/04/01 20:38:59;;;;;;;6.23;3.43;;;10.90;99.90;;;11.22;100.00;95098.00;2215192;56;26511;-59
2021/04/01 20:41:46;;;;;;;5.93;2.80;;;10.80;99.90;;;11.01;100.00;95105.00;2433777;56;26453;-59
2021/04/01 20:44:32;;;;;;;8.80;3.43;;;10.80;99.90;;;11.00;100.00;95101.00;2215189;56;26244;-57
2021/04/01 20:47:18;;;;;;;7.27;3.63;;;10.70;99.90;;;10.91;100.00;95097.00;2433769;56;26735;-57
2021/04/01 20:50:14;;;;;;;8.37;3.03;;;10.60;99.90;;;10.78;100.00;95094.00;2214913;56;26136;-57
2021/04/01 20:53:04;;;;;;;5.43;3.47;;;10.60;99.90;;;10.75;100.00;95095.00;2434117;56;26656;-57
2021/04/01 20:55:54;;;;;;;7.17;3.37;;;10.50;99.90;;;10.64;100.00;95106.00;2214699;56;26167;-57
2021/04/01 20:58:40;;;;;;;6.73;3.03;;;10.40;99.90;;;10.63;100.00;95107.00;2433643;56;26192;-57
2021/04/01 21:01:27;;;;;;;7.60;3.20;;;10.30;99.90;;;10.45;100.00;95109.00;2214974;56;26227;-58
2021/04/01 21:04:13;;;;;;;6.40;3.30;;;10.20;99.90;;;10.44;100.00;95103.00;2434043;56;26609;-57
2021/04/01 21:07:00;;;;;;;7.63;3.37;;;10.20;99.90;;;10.39;100.00;95107.00;2214886;56;26176;-56
2021/04/01 21:09:46;;;;;;;8.27;3.67;;;10.10;99.90;;;10.30;100.00;95101.00;2434056;56;26136;-57
2021/04/01 21:12:33;;;;;;;6.87;3.30;;;10.20;99.90;;;10.53;100.00;95099.00;2215897;56;26678;-57
2021/04/01 21:15:23;;;;;;;7.17;3.23;;;9.90;99.90;;;10.01;100.00;95100.00;2433253;56;26112;-58
2021/04/01 21:18:10;;;;;;;5.33;3.50;;;9.70;99.90;;;9.73;100.00;95102.00;2215010;56;26578;-57
2021/04/01 21:21:01;;;;;;;7.23;3.30;;;9.40;99.90;;;9.48;100.00;95104.00;2215468;56;26617;-57
2021/04/01 21:23:47;;;;;;;9.37;3.53;;;9.50;99.90;;;9.61;100.00;95112.00;2215198;56;26156;-57
2021/04/01 21:26:34;;;;;;;6.77;3.37;;;9.20;99.90;;;9.19;100.00;95103.00;2215523;56;26597;-58
2021/04/01 21:29:20;;;;;;;5.90;3.37;;;9.10;99.90;;;9.08;100.00;95115.00;2434245;56;26128;-59
2021/04/01 21:32:09;;;;;;;6.17;3.10;;;9.00;99.90;;;8.99;100.00;95116.00;2215366;56;26804;-57
2021/04/01 21:34:55;;;;;;;5.10;3.50;;;8.90;99.90;;;8.94;100.00;95115.00;2434283;56;26648;-58
2021/04/01 21:37:43;;;;;;;5.37;3.50;;;8.90;99.90;;;8.85;100.00;95116.00;2215995;56;26537;-57
2021/04/01 21:40:33;;;;;;;8.00;3.40;;;8.80;99.90;;;8.78;100.00;95113.00;2433744;56;26204;-58
2021/04/01 21:43:19;;;;;;;8.80;3.40;;;8.70;99.90;;;8.71;100.00;95117.00;2214291;56;26174;-59
2021/04/01 21:46:06;;;;;;;6.63;3.47;;;8.60;99.90;;;8.62;100.00;95108.00;2215339;56;26099;-59
2021/04/01 21:48:52;;;;;;;8.43;3.70;;;8.50;99.90;;;8.54;100.00;95114.00;2215072;56;26299;-59
2021/04/01 21:51:39;;;;;;;9.43;3.47;;;8.40;99.90;;;8.43;100.00;95116.00;2434458;56;26838;-59
2021/04/01 21:54:25;;;;;;;10.07;3.87;;;8.40;99.90;;;8.46;100.00;95116.00;2216028;56;26224;-59
2021/04/01 21:57:12;;;;;;;7.73;3.67;;;8.40;99.90;;;8.46;100.00;95119.00;2433672;56;26565;-59
2021/04/01 21:59:58;;;;;;;7.37;4.00;;;8.40;99.90;;;8.63;100.00;95122.00;2215050;56;26520;-59
2021/04/01 22:02:45;;;;;;;7.47;3.70;;;8.40;99.90;;;8.53;100.00;95120.00;2214864;56;26668;-59
2021/04/01 22:05:32;;;;;;;8.10;3.80;;;8.40;99.90;;;8.53;100.00;95120.00;2433731;56;26168;-59
2021/04/01 22:08:21;;;;;;;9.80;3.73;;;8.30;99.90;;;8.43;100.00;95119.00;2215129;56;26592;-60
2021/04/01 22:11:09;;;;;;;7.97;3.70;;;8.20;99.90;;;8.28;100.00;95121.00;2433975;56;26201;-58
2021/04/01 22:13:56;;;;;;;6.87;3.63;;;8.20;99.90;;;8.31;100.00;95123.00;2214685;56;26121;-59
2021/04/01 22:16:42;;;;;;;8.67;3.33;;;8.20;99.90;;;8.33;100.00;95124.00;2433804;56;26124;-59
2021/04/01 22:19:28;;;;;;;10.17;3.90;;;8.20;99.90;;;8.37;100.00;95125.00;2215007;56;26120;-59
2021/04/01 22:22:15;;;;;;;10.77;4.30;;;8.20;99.90;;;8.41;100.00;95122.00;2433743;56;26582;-58
2021/04/01 22:25:02;;;;;;;6.27;4.00;;;8.30;99.90;;;8.47;100.00;95128.00;2215196;56;26104;-59
2021/04/01 22:27:50;;;;;;;8.30;3.90;;;8.30;99.90;;;8.53;100.00;95129.00;2434318;56;26099;-59
2021/04/01 22:30:39;;;;;;;6.83;4.60;;;8.40;99.90;;;8.59;100.00;95124.00;2214845;56;26172;-59
2021/04/01 22:33:30;;;;;;;10.03;4.20;;;8.40;99.90;;;8.82;100.00;95127.00;2433378;56;26731;-59
2021/04/01 22:36:19;;;;;;;9.73;4.30;;;8.50;99.90;;;8.76;100.00;95121.00;2215486;56;26245;-59
2021/04/01 22:39:06;;;;;;;9.77;5.00;;;8.50;99.90;;;8.71;100.00;95109.00;2215157;56;26143;-59
2021/04/01 22:41:52;;;;;;;8.27;4.27;;;8.60;99.90;;;8.74;100.00;95106.00;2433430;56;26100;-59
2021/04/01 22:44:39;;;;;;;6.80;4.50;;;8.60;99.90;;;8.98;100.00;95118.00;2215280;56;26582;-59
2021/04/01 22:47:25;;;;;;;5.23;3.47;;;8.50;99.90;;;8.67;100.00;95108.00;2434000;56;26571;-59
2021/04/01 22:50:16;;;;;;;7.73;3.40;;;8.50;99.90;;;8.66;100.00;95106.00;2214853;56;26148;-57
2021/04/01 22:53:03;;;;;;;6.20;3.37;;;8.30;99.90;;;8.67;100.00;95096.00;2434395;56;26233;-60
2021/04/01 22:55:50;;;;;;;6.17;3.33;;;8.40;99.90;;;8.75;100.00;95090.00;2215328;56;26136;-59
2021/04/01 22:58:39;;;;;;;5.70;3.30;;;8.50;99.90;;;8.73;100.00;95078.00;2433873;56;26115;-57
2021/04/01 23:01:26;;;;;;;8.23;3.47;;;8.50;99.90;;;8.67;100.00;95085.00;2215144;56;26183;-58
2021/04/01 23:04:12;;;;;;;6.33;3.73;;;8.60;99.90;;;8.82;100.00;95085.00;2433614;56;26172;-57
2021/04/01 23:06:58;;;;;;;5.50;3.17;;;8.60;99.90;;;8.99;100.00;95077.00;2215266;56;26211;-57
2021/04/01 23:09:45;;;;;;;8.13;3.50;;;8.80;99.90;;;9.16;100.00;95077.00;2434479;56;26297;-58
2021/04/01 23:12:31;;;;;;;6.93;3.27;;;8.70;99.90;;;8.84;100.00;95075.00;2215701;56;26778;-57
2021/04/01 23:15:22;;;;;;;6.60;3.33;;;8.50;99.90;;;8.68;100.00;95078.00;2433739;56;26683;-57
2021/04/01 23:18:09;;;;;;;9.83;4.13;;;8.30;99.90;;;8.53;100.00;95069.00;2215250;56;26192;-57
2021/04/01 23:20:55;;;;;;;9.23;3.67;;;8.30;99.90;;;8.50;100.00;95075.00;2215572;56;26349;-57
2021/04/01 23:23:41;;;;;;;8.53;3.97;;;8.30;99.90;;;8.50;100.00;95081.00;2434310;56;26100;-58
2021/04/01 23:26:27;;;;;;;6.87;3.70;;;8.30;99.90;;;8.55;100.00;95084.00;2215734;56;26171;-57
2021/04/01 23:29:14;;;;;;;5.50;3.50;;;8.40;99.90;;;8.60;100.00;95079.00;2433885;56;26295;-57
2021/04/01 23:32:00;;;;;;;7.37;3.60;;;8.30;99.90;;;8.60;100.00;95078.00;2214898;56;26104;-57
2021/04/01 23:34:46;;;;;;;7.10;3.80;;;8.30;99.90;;;8.60;100.00;95078.00;2434151;56;26569;-59
2021/04/01 23:37:33;;;;;;;7.63;3.73;;;8.40;99.90;;;8.70;100.00;95081.00;2215651;56;26104;-58
2021/04/01 23:40:21;;;;;;;6.63;4.13;;;8.50;99.90;;;8.73;100.00;95077.00;2434053;56;26545;-58
2021/04/01 23:43:08;;;;;;;8.17;4.20;;;8.70;99.90;;;9.09;100.00;95069.00;2215253;56;26096;-58
2021/04/01 23:45:54;;;;;;;8.80;4.43;;;8.80;99.90;;;9.17;100.00;95059.00;2215139;56;26269;-58
2021/04/01 23:48:41;;;;;;;6.67;4.07;;;8.80;99.90;;;9.10;100.00;95062.00;2433671;56;26095;-57
2021/04/01 23:51:27;;;;;;;7.93;4.13;;;8.80;99.90;;;9.04;100.00;95066.00;2215746;56;26664;-59
2021/04/01 23:54:14;;;;;;;8.60;4.37;;;8.80;99.90;;;8.99;100.00;95064.00;2434249;56;26649;-57
2021/04/01 23:57:00;;;;;;;8.23;4.20;;;8.70;99.90;;;8.91;100.00;95061.00;2215410;56;26096;-57
2021/04/01 23:59:46;;;;;;;8.90;4.20;;;8.60;99.90;;;8.88;100.00;95061.00;2434060;56;26204;-57
